Time,TemperatureF,DewpointF,PressureIn,WindDirection,WindDirectionDegrees,WindSpeedMPH,WindSpeedGustMPH,Humidity,HourlyPrecipIn,Conditions,Clouds,dailyrainin,SoftwareType,DateUTC
2013-02-11 00:13:00,61.0,58.0,30.18,NNE,17,0.0,1.0,91,0.00,,,0.00,weatherlink.com 1.10,2013-02-11 05:13:00,
2013-02-11 00:28:00,60.7,58.0,30.18,NNE,17,0.0,0.0,91,0.00,,,0.00,weatherlink.com 1.10,2013-02-11 05:28:00,
2013-02-11 00:43:00,60.4,58.0,30.18,NNE,17,0.0,0.0,91,0.00,,,0.00,weatherlink.com 1.10,2013-02-11 05:43:00,
2013-02-11 00:58:00,59.8,57.0,30.18,NNE,17,0.0,0.0,91,0.00,,,0.00,weatherlink.com 1.10,2013-02-11 05:58:00,
2013-02-11 01:13:00,59.1,56.0,30.17,NNE,17,0.0,0.0,90,0.00,,,0.00,weatherlink.com 1.10,2013-02-11 06:13:00,
2013-02-11 01:28:00,58.5,56.0,30.17,NNE,17,0.0,0.0,90,0.00,,,0.00,weatherlink.com 1.10,2013-02-11 06:28:00,
2013-02-11 01:43:00,58.0,55.0,30.16,NNE,17,0.0,0.0,91,0.00,,,0.00,weatherlink.com 1.10,2013-02-11 06:43:00,
2013-02-11 01:58:00,57.7,55.0,30.16,NNE,17,0.0,1.0,91,0.00,,,0.00,weatherlink.com 1.10,2013-02-11 06:58:00,
2013-02-11 02:13:00,57.9,56.0,30.16,NNE,17,0.0,0.0,93,0.00,,,0.00,weatherlink.com 1.10,2013-02-11 07:13:00,
2013-02-11 02:28:00,58.7,57.0,30.16,NNE,17,0.0,1.0,94,0.00,,,0.00,weatherlink.com 1.10,2013-02-11 07:28:00,
2013-02-11 02:43:00,59.0,57.0,30.15,NNE,17,0.0,1.0,94,0.00,,,0.00,weatherlink.com 1.10,2013-02-11 07:43:00,
2013-02-11 02:58:00,58.9,57.0,30.15,NNE,17,0.0,1.0,94,0.00,,,0.00,weatherlink.com 1.10,2013-02-11 07:58:00,
2013-02-11 03:13:00,59.3,58.0,30.14,NNE,19,0.0,1.0,95,0.00,,,0.00,weatherlink.com 1.10,2013-02-11 08:13:00,
2013-02-11 03:28:00,59.4,58.0,30.14,SE,128,0.0,1.0,95,0.00,,,0.00,weatherlink.com 1.10,2013-02-11 08:28:00,
2013-02-11 03:43:00,59.3,58.0,30.14,SE,139,0.0,2.0,95,0.00,,,0.00,weatherlink.com 1.10,2013-02-11 08:43:00,
2013-02-11 03:58:00,59.5,58.0,30.14,SE,139,0.0,1.0,95,0.00,,,0.00,weatherlink.com 1.10,2013-02-11 08:58:00,
2013-02-11 04:13:00,59.3,58.0,30.14,SE,139,0.0,1.0,95,0.00,,,0.00,weatherlink.com 1.10,2013-02-11 09:13:00,
2013-02-11 04:28:00,59.6,58.0,30.13,SSE,163,0.0,1.0,95,0.00,,,0.00,weatherlink.com 1.10,2013-02-11 09:28:00,
2013-02-11 04:43:00,59.6,58.0,30.13,SSE,163,0.0,1.0,95,0.00,,,0.00,weatherlink.com 1.10,2013-02-11 09:43:00,
2013-02-11 04:58:00,59.2,58.0,30.14,SSE,163,0.0,0.0,95,0.00,,,0.00,weatherlink.com 1.10,2013-02-11 09:58:00,
2013-02-11 05:13:00,58.8,57.0,30.14,SSE,163,0.0,0.0,95,0.00,,,0.00,weatherlink.com 1.10,2013-02-11 10:13:00,
2013-02-11 05:28:00,58.2,57.0,30.15,SSE,163,0.0,0.0,95,0.00,,,0.00,weatherlink.com 1.10,2013-02-11 10:28:00,
2013-02-11 05:43:00,57.4,56.0,30.15,SSE,163,0.0,0.0,94,0.00,,,0.00,weatherlink.com 1.10,2013-02-11 10:43:00,
2013-02-11 05:58:00,56.6,55.0,30.16,SSE,163,0.0,0.0,94,0.00,,,0.00,weatherlink.com 1.10,2013-02-11 10:58:00,
2013-02-11 06:13:00,56.2,55.0,30.16,SSE,163,0.0,0.0,94,0.00,,,0.00,weatherlink.com 1.10,2013-02-11 11:13:00,
2013-02-11 06:28:00,55.7,54.0,30.17,SSE,163,0.0,0.0,94,0.00,,,0.00,weatherlink.com 1.10,2013-02-11 11:28:00,
2013-02-11 06:43:00,55.3,54.0,30.17,SSE,163,0.0,0.0,94,0.00,,,0.00,weatherlink.com 1.10,2013-02-11 11:43:00,
2013-02-11 06:58:00,55.0,53.0,30.18,SSE,163,0.0,0.0,94,0.00,,,0.00,weatherlink.com 1.10,2013-02-11 11:58:00,
2013-02-11 07:13:00,55.0,54.0,30.18,SSE,163,0.0,0.0,95,0.00,,,0.00,weatherlink.com 1.10,2013-02-11 12:13:00,
2013-02-11 07:28:00,56.4,55.0,30.19,SSE,163,0.0,1.0,96,0.00,,,0.00,weatherlink.com 1.10,2013-02-11 12:28:00,
2013-02-11 07:43:00,56.5,55.0,30.19,SSE,163,0.0,0.0,95,0.00,,,0.00,weatherlink.com 1.10,2013-02-11 12:43:00,
2013-02-11 07:58:00,56.8,56.0,30.19,SSE,163,0.0,0.0,96,0.00,,,0.00,weatherlink.com 1.10,2013-02-11 12:58:00,
2013-02-11 08:14:00,60.5,60.0,30.19,SSE,163,0.0,0.0,97,0.00,,,0.00,weatherlink.com 1.10,2013-02-11 13:14:00,
2013-02-11 08:29:00,62.7,62.0,30.20,SSE,163,0.0,2.0,97,0.00,,,0.00,weatherlink.com 1.10,2013-02-11 13:29:00,
2013-02-11 08:44:00,64.4,63.0,30.20,SSE,156,0.0,3.0,95,0.00,,,0.00,weatherlink.com 1.10,2013-02-11 13:44:00,
2013-02-11 08:59:00,65.7,63.0,30.20,SSE,163,1.0,4.0,92,0.00,,,0.00,weatherlink.com 1.10,2013-02-11 13:59:00,
2013-02-11 09:14:00,67.2,64.0,30.20,SSE,151,4.0,4.0,89,0.00,,,0.00,weatherlink.com 1.10,2013-02-11 14:14:00,
2013-02-11 09:29:00,68.9,64.0,30.20,SE,146,2.0,5.0,85,0.00,,,0.00,weatherlink.com 1.10,2013-02-11 14:29:00,
2013-02-11 09:44:00,70.5,65.0,30.21,SSE,161,3.0,4.0,83,0.00,,,0.00,weatherlink.com 1.10,2013-02-11 14:44:00,
2013-02-11 09:59:00,71.4,66.0,30.21,SSE,155,0.0,5.0,82,0.00,,,0.00,weatherlink.com 1.10,2013-02-11 14:59:00,
2013-02-11 10:14:00,72.6,65.0,30.21,SE,131,0.0,5.0,78,0.00,,,0.00,weatherlink.com 1.10,2013-02-11 15:14:00,
2013-02-11 10:29:00,74.1,66.0,30.20,South,174,3.0,6.0,75,0.00,,,0.00,weatherlink.com 1.10,2013-02-11 15:29:00,
2013-02-11 10:44:00,74.4,65.0,30.20,South,173,4.0,9.0,73,0.00,,,0.00,weatherlink.com 1.10,2013-02-11 15:44:00,
2013-02-11 10:59:00,75.1,64.0,30.20,SSE,162,3.0,8.0,69,0.00,,,0.00,weatherlink.com 1.10,2013-02-11 15:59:00,
2013-02-11 11:14:00,76.0,65.0,30.20,South,172,5.0,9.0,68,0.00,,,0.00,weatherlink.com 1.10,2013-02-11 16:14:00,
2013-02-11 11:29:00,77.0,66.0,30.19,SSE,163,2.0,5.0,68,0.00,,,0.00,weatherlink.com 1.10,2013-02-11 16:29:00,
2013-02-11 11:44:00,77.9,65.0,30.18,SSW,200,2.0,5.0,65,0.00,,,0.00,weatherlink.com 1.10,2013-02-11 16:44:00,
2013-02-11 11:59:00,78.4,65.0,30.18,SE,142,0.0,8.0,64,0.00,,,0.00,weatherlink.com 1.10,2013-02-11 16:59:00,
2013-02-11 12:14:00,76.7,64.0,30.17,SE,140,2.0,5.0,65,0.00,,,0.00,weatherlink.com 1.10,2013-02-11 17:14:00,
2013-02-11 12:29:00,77.3,64.0,30.16,South,187,3.0,7.0,63,0.00,,,0.00,weatherlink.com 1.10,2013-02-11 17:29:00,
2013-02-11 12:44:00,77.2,64.0,30.16,SSW,198,4.0,4.0,64,0.00,,,0.00,weatherlink.com 1.10,2013-02-11 17:44:00,
2013-02-11 12:59:00,78.5,64.0,30.14,South,184,2.0,6.0,61,0.00,,,0.00,weatherlink.com 1.10,2013-02-11 17:59:00,
2013-02-11 13:14:00,80.0,65.0,30.13,SSE,166,3.0,5.0,60,0.00,,,0.00,weatherlink.com 1.10,2013-02-11 18:14:00,
2013-02-11 13:29:00,79.5,63.0,30.12,SSE,168,0.0,10.0,57,0.00,,,0.00,weatherlink.com 1.10,2013-02-11 18:29:00,
2013-02-11 13:44:00,80.4,64.0,30.11,SSE,159,2.0,8.0,57,0.00,,,0.00,weatherlink.com 1.10,2013-02-11 18:44:00,
2013-02-11 13:59:00,78.9,63.0,30.11,SW,227,0.0,7.0,59,0.00,,,0.00,weatherlink.com 1.10,2013-02-11 18:59:00,
2013-02-11 14:15:00,81.7,64.0,30.10,South,190,3.0,5.0,55,0.00,,,0.00,weatherlink.com 1.10,2013-02-11 19:15:00,
2013-02-11 14:30:00,80.8,63.0,30.10,SSE,159,1.0,5.0,55,0.00,,,0.00,weatherlink.com 1.10,2013-02-11 19:30:00,
2013-02-11 14:45:00,81.8,62.0,30.09,SSE,165,2.0,9.0,52,0.00,,,0.00,weatherlink.com 1.10,2013-02-11 19:45:00,
2013-02-11 15:00:00,81.2,63.0,30.09,South,177,1.0,4.0,55,0.00,,,0.00,weatherlink.com 1.10,2013-02-11 20:00:00,
2013-02-11 15:15:00,81.9,62.0,30.08,South,173,1.0,7.0,52,0.00,,,0.00,weatherlink.com 1.10,2013-02-11 20:15:00,
2013-02-11 15:30:00,80.9,63.0,30.08,SSW,206,2.0,4.0,54,0.00,,,0.00,weatherlink.com 1.10,2013-02-11 20:30:00,
2013-02-11 15:45:00,79.7,63.0,30.08,SSW,193,2.0,2.0,57,0.00,,,0.00,weatherlink.com 1.10,2013-02-11 20:45:00,
2013-02-11 16:00:00,82.1,63.0,30.07,SSW,207,2.0,5.0,53,0.00,,,0.00,weatherlink.com 1.10,2013-02-11 21:00:00,
2013-02-11 16:15:00,81.1,63.0,30.07,SSW,195,1.0,7.0,55,0.00,,,0.00,weatherlink.com 1.10,2013-02-11 21:15:00,
2013-02-11 16:30:00,80.4,63.0,30.07,WSW,240,2.0,6.0,56,0.00,,,0.00,weatherlink.com 1.10,2013-02-11 21:30:00,
2013-02-11 16:45:00,79.5,63.0,30.06,SSW,211,3.0,6.0,58,0.00,,,0.00,weatherlink.com 1.10,2013-02-11 21:45:00,
2013-02-11 17:00:00,79.1,64.0,30.06,SSW,208,1.0,2.0,60,0.00,,,0.00,weatherlink.com 1.10,2013-02-11 22:00:00,
2013-02-11 17:15:00,79.4,64.0,30.06,SSW,208,0.0,3.0,60,0.00,,,0.00,weatherlink.com 1.10,2013-02-11 22:15:00,
2013-02-11 17:30:00,78.1,64.0,30.06,SSW,208,0.0,1.0,62,0.00,,,0.00,weatherlink.com 1.10,2013-02-11 22:30:00,
2013-02-11 17:44:00,76.5,65.0,30.06,SSW,208,0.0,0.0,68,0.00,,,0.00,weatherlink.com 1.10,2013-02-11 22:44:00,
2013-02-11 18:00:00,75.8,65.0,30.06,SSW,208,0.0,0.0,70,0.00,,,0.00,weatherlink.com 1.10,2013-02-11 23:00:00,
2013-02-11 18:15:00,75.2,66.0,30.07,SSW,208,0.0,0.0,72,0.00,,,0.00,weatherlink.com 1.10,2013-02-11 23:15:00,
2013-02-11 18:30:00,74.2,65.0,30.07,SSW,208,0.0,0.0,73,0.00,,,0.00,weatherlink.com 1.10,2013-02-11 23:30:00,
2013-02-11 18:45:00,73.2,65.0,30.08,SSW,208,0.0,0.0,75,0.00,,,0.00,weatherlink.com 1.10,2013-02-11 23:45:00,
2013-02-11 19:00:00,72.4,65.0,30.08,SSW,208,0.0,0.0,77,0.00,,,0.00,weatherlink.com 1.10,2013-02-12 00:00:00,
2013-02-11 19:15:00,71.8,65.0,30.08,SSW,208,0.0,0.0,78,0.00,,,0.00,weatherlink.com 1.10,2013-02-12 00:15:00,
2013-02-11 19:30:00,71.4,65.0,30.08,SSW,208,0.0,0.0,79,0.00,,,0.00,weatherlink.com 1.10,2013-02-12 00:30:00,
2013-02-11 19:45:00,71.0,64.0,30.09,SSW,208,0.0,0.0,79,0.00,,,0.00,weatherlink.com 1.10,2013-02-12 00:45:00,
2013-02-11 20:00:00,70.9,64.0,30.10,SSW,208,0.0,1.0,80,0.00,,,0.00,weatherlink.com 1.10,2013-02-12 01:00:00,
2013-02-11 20:15:00,70.8,64.0,30.10,SSW,208,0.0,0.0,80,0.00,,,0.00,weatherlink.com 1.10,2013-02-12 01:15:00,
2013-02-11 20:30:00,71.6,64.0,30.10,SSW,208,0.0,2.0,77,0.00,,,0.00,weatherlink.com 1.10,2013-02-12 01:30:00,
2013-02-11 20:45:00,72.2,65.0,30.10,SSW,208,0.0,0.0,77,0.00,,,0.00,weatherlink.com 1.10,2013-02-12 01:45:00,
2013-02-11 21:00:00,72.0,64.0,30.10,SSW,208,0.0,0.0,77,0.00,,,0.00,weatherlink.com 1.10,2013-02-12 02:00:00,
2013-02-11 21:15:00,71.5,64.0,30.10,SSW,208,0.0,0.0,78,0.00,,,0.00,weatherlink.com 1.10,2013-02-12 02:15:00,
2013-02-11 21:30:00,70.7,64.0,30.10,SSW,208,0.0,0.0,79,0.00,,,0.00,weatherlink.com 1.10,2013-02-12 02:30:00,
2013-02-11 21:45:00,70.1,64.0,30.10,SSW,208,0.0,0.0,81,0.00,,,0.00,weatherlink.com 1.10,2013-02-12 02:45:00,
2013-02-11 22:00:00,69.6,64.0,30.11,SSW,208,0.0,1.0,81,0.00,,,0.00,weatherlink.com 1.10,2013-02-12 03:00:00,
2013-02-11 22:15:00,68.9,63.0,30.11,SSW,208,0.0,0.0,82,0.00,,,0.00,weatherlink.com 1.10,2013-02-12 03:15:00,
2013-02-11 22:30:00,68.2,63.0,30.10,SSW,208,0.0,0.0,83,0.00,,,0.00,weatherlink.com 1.10,2013-02-12 03:30:00,
2013-02-11 22:45:00,67.4,62.0,30.10,SSW,208,0.0,0.0,84,0.00,,,0.00,weatherlink.com 1.10,2013-02-12 03:45:00,
2013-02-11 23:00:00,66.4,62.0,30.10,SSW,208,0.0,0.0,84,0.00,,,0.00,weatherlink.com 1.10,2013-02-12 04:00:00,
2013-02-11 23:15:00,65.3,61.0,30.10,SSW,208,0.0,0.0,85,0.00,,,0.00,weatherlink.com 1.10,2013-02-12 04:15:00,
2013-02-11 23:30:00,64.3,60.0,30.10,SSW,208,0.0,0.0,87,0.00,,,0.00,weatherlink.com 1.10,2013-02-12 04:30:00,
2013-02-11 23:45:00,63.7,60.0,30.10,SSW,208,0.0,0.0,88,0.00,,,0.00,weatherlink.com 1.10,2013-02-12 04:45:00,